sensor_id;sensor_type;location;lat;lon;timestamp;P1;durP1;ratioP1;P2;durP2;ratioP2
57730;SDS011;43570;47.476;19.040;2023-07-31T00:00:06;4.22;;;3.22;;
57730;SDS011;43570;47.476;19.040;2023-07-31T00:02:34;5.05;;;3.12;;
57730;SDS011;43570;47.476;19.040;2023-07-31T00:04:59;5.90;;;3.08;;
57730;SDS011;43570;47.476;19.040;2023-07-31T00:07:25;5.25;;;3.20;;
57730;SDS011;43570;47.476;19.040;2023-07-31T00:09:50;5.07;;;3.47;;
57730;SDS011;43570;47.476;19.040;2023-07-31T00:12:16;4.80;;;3.10;;
57730;SDS011;43570;47.476;19.040;2023-07-31T00:14:43;4.12;;;3.20;;
57730;SDS011;43570;47.476;19.040;2023-07-31T00:17:08;4.55;;;3.20;;
57730;SDS011;43570;47.476;19.040;2023-07-31T00:19:34;5.15;;;3.12;;
57730;SDS011;43570;47.476;19.040;2023-07-31T00:21:59;5.35;;;3.28;;
57730;SDS011;43570;47.476;19.040;2023-07-31T00:24:24;5.80;;;3.45;;
57730;SDS011;43570;47.476;19.040;2023-07-31T00:26:50;4.18;;;3.22;;
57730;SDS011;43570;47.476;19.040;2023-07-31T00:29:16;4.60;;;3.08;;
57730;SDS011;43570;47.476;19.040;2023-07-31T00:31:42;4.82;;;3.25;;
57730;SDS011;43570;47.476;19.040;2023-07-31T00:34:07;4.32;;;3.25;;
57730;SDS011;43570;47.476;19.040;2023-07-31T00:36:33;6.53;;;3.28;;
57730;SDS011;43570;47.476;19.040;2023-07-31T00:38:58;4.00;;;3.12;;
57730;SDS011;43570;47.476;19.040;2023-07-31T00:41:23;3.65;;;2.80;;
57730;SDS011;43570;47.476;19.040;2023-07-31T00:43:49;4.82;;;3.40;;
57730;SDS011;43570;47.476;19.040;2023-07-31T00:46:14;4.37;;;3.20;;
57730;SDS011;43570;47.476;19.040;2023-07-31T00:48:40;4.47;;;3.17;;
57730;SDS011;43570;47.476;19.040;2023-07-31T00:51:06;5.25;;;3.60;;
57730;SDS011;43570;47.476;19.040;2023-07-31T00:53:32;4.75;;;3.53;;
57730;SDS011;43570;47.476;19.040;2023-07-31T00:55:58;4.12;;;3.33;;
57730;SDS011;43570;47.476;19.040;2023-07-31T00:58:24;4.40;;;3.28;;
57730;SDS011;43570;47.476;19.040;2023-07-31T01:00:49;4.95;;;3.53;;
57730;SDS011;43570;47.476;19.040;2023-07-31T01:03:15;4.35;;;3.37;;
57730;SDS011;43570;47.476;19.040;2023-07-31T01:05:56;4.53;;;3.10;;
57730;SDS011;43570;47.476;19.040;2023-07-31T01:14:05;7.12;;;3.87;;
57730;SDS011;43570;47.476;19.040;2023-07-31T01:16:30;4.87;;;3.70;;
57730;SDS011;43570;47.476;19.040;2023-07-31T01:18:56;5.20;;;3.65;;
57730;SDS011;43570;47.476;19.040;2023-07-31T01:26:47;5.47;;;3.83;;
57730;SDS011;43570;47.476;19.040;2023-07-31T01:29:23;7.05;;;3.87;;
57730;SDS011;43570;47.476;19.040;2023-07-31T01:31:55;4.65;;;3.78;;
57730;SDS011;43570;47.476;19.040;2023-07-31T01:34:21;4.90;;;3.75;;
57730;SDS011;43570;47.476;19.040;2023-07-31T01:36:47;5.53;;;3.55;;
57730;SDS011;43570;47.476;19.040;2023-07-31T01:39:13;4.80;;;3.40;;
57730;SDS011;43570;47.476;19.040;2023-07-31T01:41:40;5.10;;;3.45;;
57730;SDS011;43570;47.476;19.040;2023-07-31T01:44:06;4.43;;;3.40;;
57730;SDS011;43570;47.476;19.040;2023-07-31T01:46:31;6.25;;;3.55;;
57730;SDS011;43570;47.476;19.040;2023-07-31T01:48:57;4.72;;;3.37;;
57730;SDS011;43570;47.476;19.040;2023-07-31T01:51:22;4.35;;;3.00;;
57730;SDS011;43570;47.476;19.040;2023-07-31T01:53:47;4.25;;;2.78;;
57730;SDS011;43570;47.476;19.040;2023-07-31T01:56:13;4.93;;;3.37;;
57730;SDS011;43570;47.476;19.040;2023-07-31T01:58:38;4.18;;;2.78;;
57730;SDS011;43570;47.476;19.040;2023-07-31T02:01:04;5.10;;;3.12;;
57730;SDS011;43570;47.476;19.040;2023-07-31T02:03:29;6.40;;;2.92;;
57730;SDS011;43570;47.476;19.040;2023-07-31T02:05:54;4.75;;;3.20;;
57730;SDS011;43570;47.476;19.040;2023-07-31T02:08:20;4.87;;;3.20;;
57730;SDS011;43570;47.476;19.040;2023-07-31T02:10:45;4.90;;;3.17;;
57730;SDS011;43570;47.476;19.040;2023-07-31T02:13:11;4.43;;;3.25;;
57730;SDS011;43570;47.476;19.040;2023-07-31T02:15:36;5.78;;;3.75;;
57730;SDS011;43570;47.476;19.040;2023-07-31T02:18:03;4.65;;;3.40;;
57730;SDS011;43570;47.476;19.040;2023-07-31T02:20:28;5.47;;;3.80;;
57730;SDS011;43570;47.476;19.040;2023-07-31T02:22:54;4.82;;;3.58;;
57730;SDS011;43570;47.476;19.040;2023-07-31T02:25:19;6.07;;;3.22;;
57730;SDS011;43570;47.476;19.040;2023-07-31T02:27:45;5.07;;;3.50;;
57730;SDS011;43570;47.476;19.040;2023-07-31T02:30:10;5.07;;;3.28;;
57730;SDS011;43570;47.476;19.040;2023-07-31T02:32:36;5.20;;;3.35;;
57730;SDS011;43570;47.476;19.040;2023-07-31T02:35:01;5.78;;;3.53;;
57730;SDS011;43570;47.476;19.040;2023-07-31T02:37:27;3.95;;;3.10;;
57730;SDS011;43570;47.476;19.040;2023-07-31T02:39:53;4.72;;;3.50;;
57730;SDS011;43570;47.476;19.040;2023-07-31T02:42:19;5.75;;;3.47;;
57730;SDS011;43570;47.476;19.040;2023-07-31T02:44:44;5.15;;;3.62;;
57730;SDS011;43570;47.476;19.040;2023-07-31T02:47:10;5.68;;;3.60;;
57730;SDS011;43570;47.476;19.040;2023-07-31T02:49:35;6.45;;;3.80;;
57730;SDS011;43570;47.476;19.040;2023-07-31T02:52:01;4.32;;;3.58;;
57730;SDS011;43570;47.476;19.040;2023-07-31T02:54:26;5.18;;;3.97;;
57730;SDS011;43570;47.476;19.040;2023-07-31T02:56:51;4.93;;;3.50;;
57730;SDS011;43570;47.476;19.040;2023-07-31T02:59:17;5.35;;;3.97;;
57730;SDS011;43570;47.476;19.040;2023-07-31T03:01:43;5.90;;;3.85;;
57730;SDS011;43570;47.476;19.040;2023-07-31T03:04:09;6.00;;;3.85;;
57730;SDS011;43570;47.476;19.040;2023-07-31T03:06:34;5.93;;;3.92;;
57730;SDS011;43570;47.476;19.040;2023-07-31T03:08:59;6.37;;;3.92;;
57730;SDS011;43570;47.476;19.040;2023-07-31T03:11:25;4.55;;;3.25;;
57730;SDS011;43570;47.476;19.040;2023-07-31T03:13:50;5.20;;;3.80;;
57730;SDS011;43570;47.476;19.040;2023-07-31T03:16:15;4.93;;;3.45;;
57730;SDS011;43570;47.476;19.040;2023-07-31T03:18:41;9.88;;;4.03;;
57730;SDS011;43570;47.476;19.040;2023-07-31T03:21:06;6.05;;;3.55;;
57730;SDS011;43570;47.476;19.040;2023-07-31T03:23:33;6.62;;;3.70;;
57730;SDS011;43570;47.476;19.040;2023-07-31T03:26:00;5.40;;;3.42;;
57730;SDS011;43570;47.476;19.040;2023-07-31T03:28:30;6.22;;;3.75;;
57730;SDS011;43570;47.476;19.040;2023-07-31T03:30:56;5.28;;;3.67;;
57730;SDS011;43570;47.476;19.040;2023-07-31T03:33:21;5.37;;;3.20;;
57730;SDS011;43570;47.476;19.040;2023-07-31T03:35:49;6.95;;;3.40;;
57730;SDS011;43570;47.476;19.040;2023-07-31T03:38:15;4.75;;;3.20;;
57730;SDS011;43570;47.476;19.040;2023-07-31T03:40:40;7.57;;;3.47;;
57730;SDS011;43570;47.476;19.040;2023-07-31T03:43:06;4.57;;;3.00;;
57730;SDS011;43570;47.476;19.040;2023-07-31T03:45:31;5.65;;;3.45;;
57730;SDS011;43570;47.476;19.040;2023-07-31T03:47:56;5.25;;;3.12;;
57730;SDS011;43570;47.476;19.040;2023-07-31T03:50:22;5.43;;;3.25;;
57730;SDS011;43570;47.476;19.040;2023-07-31T03:52:47;4.72;;;2.90;;
57730;SDS011;43570;47.476;19.040;2023-07-31T03:55:13;7.35;;;3.03;;
57730;SDS011;43570;47.476;19.040;2023-07-31T03:57:38;4.87;;;3.10;;
57730;SDS011;43570;47.476;19.040;2023-07-31T04:00:04;4.82;;;3.35;;
57730;SDS011;43570;47.476;19.040;2023-07-31T04:02:30;8.40;;;3.58;;
57730;SDS011;43570;47.476;19.040;2023-07-31T04:04:55;5.87;;;3.33;;
57730;SDS011;43570;47.476;19.040;2023-07-31T04:07:21;4.80;;;2.80;;
57730;SDS011;43570;47.476;19.040;2023-07-31T04:09:48;5.53;;;2.83;;
57730;SDS011;43570;47.476;19.040;2023-07-31T04:12:13;6.10;;;3.00;;
57730;SDS011;43570;47.476;19.040;2023-07-31T04:14:38;6.37;;;3.20;;
57730;SDS011;43570;47.476;19.040;2023-07-31T04:17:04;6.32;;;3.22;;
57730;SDS011;43570;47.476;19.040;2023-07-31T04:19:29;5.30;;;3.00;;
57730;SDS011;43570;47.476;19.040;2023-07-31T04:21:54;4.82;;;2.50;;
57730;SDS011;43570;47.476;19.040;2023-07-31T04:24:20;5.07;;;3.10;;
57730;SDS011;43570;47.476;19.040;2023-07-31T04:26:52;5.68;;;2.97;;
57730;SDS011;43570;47.476;19.040;2023-07-31T04:29:18;4.22;;;2.92;;
57730;SDS011;43570;47.476;19.040;2023-07-31T04:31:43;5.03;;;3.05;;
57730;SDS011;43570;47.476;19.040;2023-07-31T04:34:09;4.97;;;2.72;;
57730;SDS011;43570;47.476;19.040;2023-07-31T04:36:34;5.35;;;2.90;;
57730;SDS011;43570;47.476;19.040;2023-07-31T04:39:00;4.60;;;2.78;;
57730;SDS011;43570;47.476;19.040;2023-07-31T04:41:26;6.53;;;3.03;;
57730;SDS011;43570;47.476;19.040;2023-07-31T04:43:52;5.12;;;2.78;;
57730;SDS011;43570;47.476;19.040;2023-07-31T04:46:17;5.22;;;2.80;;
57730;SDS011;43570;47.476;19.040;2023-07-31T04:48:43;5.93;;;3.10;;
57730;SDS011;43570;47.476;19.040;2023-07-31T04:51:08;8.02;;;3.22;;
57730;SDS011;43570;47.476;19.040;2023-07-31T04:53:36;5.00;;;2.40;;
57730;SDS011;43570;47.476;19.040;2023-07-31T04:56:02;4.20;;;2.87;;
57730;SDS011;43570;47.476;19.040;2023-07-31T04:58:28;5.15;;;2.90;;
57730;SDS011;43570;47.476;19.040;2023-07-31T05:00:53;5.18;;;2.83;;
57730;SDS011;43570;47.476;19.040;2023-07-31T05:03:18;6.25;;;2.72;;
57730;SDS011;43570;47.476;19.040;2023-07-31T05:05:44;4.80;;;2.30;;
57730;SDS011;43570;47.476;19.040;2023-07-31T05:08:09;3.97;;;2.40;;
57730;SDS011;43570;47.476;19.040;2023-07-31T05:10:36;4.22;;;2.30;;
57730;SDS011;43570;47.476;19.040;2023-07-31T05:13:01;5.85;;;2.55;;
57730;SDS011;43570;47.476;19.040;2023-07-31T05:15:28;5.25;;;2.20;;
57730;SDS011;43570;47.476;19.040;2023-07-31T05:17:53;4.78;;;2.12;;
57730;SDS011;43570;47.476;19.040;2023-07-31T05:20:19;3.35;;;2.00;;
57730;SDS011;43570;47.476;19.040;2023-07-31T05:22:44;3.85;;;2.17;;
57730;SDS011;43570;47.476;19.040;2023-07-31T05:25:09;5.15;;;2.33;;
57730;SDS011;43570;47.476;19.040;2023-07-31T05:27:35;4.00;;;2.30;;
57730;SDS011;43570;47.476;19.040;2023-07-31T05:30:00;3.87;;;2.08;;
57730;SDS011;43570;47.476;19.040;2023-07-31T05:32:26;3.00;;;1.98;;
57730;SDS011;43570;47.476;19.040;2023-07-31T05:34:51;5.68;;;2.10;;
57730;SDS011;43570;47.476;19.040;2023-07-31T05:37:18;3.28;;;2.05;;
57730;SDS011;43570;47.476;19.040;2023-07-31T05:39:43;5.87;;;2.58;;
57730;SDS011;43570;47.476;19.040;2023-07-31T05:42:11;5.25;;;2.33;;
57730;SDS011;43570;47.476;19.040;2023-07-31T05:44:37;4.50;;;2.20;;
57730;SDS011;43570;47.476;19.040;2023-07-31T05:47:02;5.57;;;2.33;;
57730;SDS011;43570;47.476;19.040;2023-07-31T05:49:28;4.40;;;2.37;;
57730;SDS011;43570;47.476;19.040;2023-07-31T05:51:54;3.25;;;1.85;;
57730;SDS011;43570;47.476;19.040;2023-07-31T05:54:19;4.28;;;2.50;;
57730;SDS011;43570;47.476;19.040;2023-07-31T05:56:45;5.43;;;2.12;;
57730;SDS011;43570;47.476;19.040;2023-07-31T05:59:12;5.43;;;2.40;;
57730;SDS011;43570;47.476;19.040;2023-07-31T06:01:38;4.10;;;2.20;;
57730;SDS011;43570;47.476;19.040;2023-07-31T06:04:04;4.20;;;2.08;;
57730;SDS011;43570;47.476;19.040;2023-07-31T06:06:30;5.03;;;2.28;;
57730;SDS011;43570;47.476;19.040;2023-07-31T06:08:56;4.28;;;2.33;;
57730;SDS011;43570;47.476;19.040;2023-07-31T06:11:21;3.08;;;1.67;;
57730;SDS011;43570;47.476;19.040;2023-07-31T06:13:47;5.60;;;2.03;;
57730;SDS011;43570;47.476;19.040;2023-07-31T06:16:14;9.70;;;5.15;;
57730;SDS011;43570;47.476;19.040;2023-07-31T06:18:40;8.05;;;4.03;;
57730;SDS011;43570;47.476;19.040;2023-07-31T06:21:06;5.20;;;2.40;;
57730;SDS011;43570;47.476;19.040;2023-07-31T06:23:31;4.75;;;2.20;;
57730;SDS011;43570;47.476;19.040;2023-07-31T06:25:57;3.78;;;2.00;;
57730;SDS011;43570;47.476;19.040;2023-07-31T06:28:26;3.80;;;1.85;;
57730;SDS011;43570;47.476;19.040;2023-07-31T06:30:53;4.28;;;1.80;;
57730;SDS011;43570;47.476;19.040;2023-07-31T06:33:19;5.05;;;2.25;;
57730;SDS011;43570;47.476;19.040;2023-07-31T06:35:44;4.90;;;2.20;;
57730;SDS011;43570;47.476;19.040;2023-07-31T06:38:10;4.60;;;2.67;;
57730;SDS011;43570;47.476;19.040;2023-07-31T06:40:37;3.20;;;1.80;;
57730;SDS011;43570;47.476;19.040;2023-07-31T06:43:05;6.07;;;2.20;;
57730;SDS011;43570;47.476;19.040;2023-07-31T06:45:34;5.10;;;2.08;;
57730;SDS011;43570;47.476;19.040;2023-07-31T06:48:00;5.28;;;2.30;;
57730;SDS011;43570;47.476;19.040;2023-07-31T06:50:27;5.28;;;2.17;;
57730;SDS011;43570;47.476;19.040;2023-07-31T06:52:55;6.85;;;2.50;;
57730;SDS011;43570;47.476;19.040;2023-07-31T06:55:21;5.78;;;2.10;;
57730;SDS011;43570;47.476;19.040;2023-07-31T06:57:50;3.58;;;1.87;;
57730;SDS011;43570;47.476;19.040;2023-07-31T07:00:18;5.05;;;2.47;;
57730;SDS011;43570;47.476;19.040;2023-07-31T07:02:46;4.93;;;3.30;;
57730;SDS011;43570;47.476;19.040;2023-07-31T07:05:13;6.62;;;2.30;;
57730;SDS011;43570;47.476;19.040;2023-07-31T07:07:39;6.30;;;3.10;;
57730;SDS011;43570;47.476;19.040;2023-07-31T07:10:05;5.30;;;2.78;;
57730;SDS011;43570;47.476;19.040;2023-07-31T07:12:32;4.07;;;2.47;;
57730;SDS011;43570;47.476;19.040;2023-07-31T07:14:59;4.87;;;2.17;;
57730;SDS011;43570;47.476;19.040;2023-07-31T07:17:25;3.85;;;2.00;;
57730;SDS011;43570;47.476;19.040;2023-07-31T07:19:56;5.87;;;2.60;;
57730;SDS011;43570;47.476;19.040;2023-07-31T07:22:21;4.03;;;2.42;;
57730;SDS011;43570;47.476;19.040;2023-07-31T07:24:47;4.00;;;2.17;;
57730;SDS011;43570;47.476;19.040;2023-07-31T07:27:12;4.62;;;2.40;;
57730;SDS011;43570;47.476;19.040;2023-07-31T07:29:37;3.92;;;2.20;;
57730;SDS011;43570;47.476;19.040;2023-07-31T07:32:03;8.27;;;3.00;;
57730;SDS011;43570;47.476;19.040;2023-07-31T07:34:30;5.00;;;2.30;;
57730;SDS011;43570;47.476;19.040;2023-07-31T07:36:55;3.67;;;2.00;;
57730;SDS011;43570;47.476;19.040;2023-07-31T07:39:21;3.17;;;2.08;;
57730;SDS011;43570;47.476;19.040;2023-07-31T07:41:46;5.55;;;2.72;;
57730;SDS011;43570;47.476;19.040;2023-07-31T07:44:12;4.93;;;2.47;;
57730;SDS011;43570;47.476;19.040;2023-07-31T07:46:38;5.25;;;2.35;;
57730;SDS011;43570;47.476;19.040;2023-07-31T07:49:03;5.22;;;2.65;;
57730;SDS011;43570;47.476;19.040;2023-07-31T07:51:29;4.78;;;2.60;;
57730;SDS011;43570;47.476;19.040;2023-07-31T07:53:56;6.72;;;2.95;;
57730;SDS011;43570;47.476;19.040;2023-07-31T07:56:22;4.12;;;2.47;;
57730;SDS011;43570;47.476;19.040;2023-07-31T07:58:48;3.85;;;2.22;;
57730;SDS011;43570;47.476;19.040;2023-07-31T08:01:15;5.82;;;2.05;;
57730;SDS011;43570;47.476;19.040;2023-07-31T08:03:40;5.28;;;2.50;;
57730;SDS011;43570;47.476;19.040;2023-07-31T08:06:06;4.10;;;2.00;;
57730;SDS011;43570;47.476;19.040;2023-07-31T08:08:34;5.10;;;2.00;;
57730;SDS011;43570;47.476;19.040;2023-07-31T08:10:59;4.25;;;1.90;;
57730;SDS011;43570;47.476;19.040;2023-07-31T08:13:25;5.22;;;2.50;;
57730;SDS011;43570;47.476;19.040;2023-07-31T08:15:50;4.97;;;1.92;;
57730;SDS011;43570;47.476;19.040;2023-07-31T08:18:15;5.10;;;2.08;;
57730;SDS011;43570;47.476;19.040;2023-07-31T08:20:42;4.55;;;2.10;;
57730;SDS011;43570;47.476;19.040;2023-07-31T08:23:07;5.20;;;2.17;;
57730;SDS011;43570;47.476;19.040;2023-07-31T08:25:34;5.18;;;2.50;;
57730;SDS011;43570;47.476;19.040;2023-07-31T08:28:01;4.70;;;1.98;;
57730;SDS011;43570;47.476;19.040;2023-07-31T08:30:26;5.78;;;2.12;;
57730;SDS011;43570;47.476;19.040;2023-07-31T08:32:52;5.97;;;2.37;;
57730;SDS011;43570;47.476;19.040;2023-07-31T08:35:17;6.62;;;2.20;;
57730;SDS011;43570;47.476;19.040;2023-07-31T08:37:43;5.60;;;2.75;;
57730;SDS011;43570;47.476;19.040;2023-07-31T08:40:08;5.75;;;2.30;;
57730;SDS011;43570;47.476;19.040;2023-07-31T08:42:34;5.60;;;2.17;;
57730;SDS011;43570;47.476;19.040;2023-07-31T08:45:08;4.37;;;2.12;;
57730;SDS011;43570;47.476;19.040;2023-07-31T08:47:34;5.25;;;2.10;;
57730;SDS011;43570;47.476;19.040;2023-07-31T08:50:00;4.37;;;2.35;;
57730;SDS011;43570;47.476;19.040;2023-07-31T08:52:25;5.55;;;2.45;;
57730;SDS011;43570;47.476;19.040;2023-07-31T08:54:50;4.97;;;2.30;;
57730;SDS011;43570;47.476;19.040;2023-07-31T08:57:16;7.97;;;2.17;;
57730;SDS011;43570;47.476;19.040;2023-07-31T08:59:41;4.95;;;2.37;;
57730;SDS011;43570;47.476;19.040;2023-07-31T09:02:07;3.85;;;2.08;;
57730;SDS011;43570;47.476;19.040;2023-07-31T09:04:33;5.47;;;2.30;;
57730;SDS011;43570;47.476;19.040;2023-07-31T09:07:02;5.50;;;2.10;;
57730;SDS011;43570;47.476;19.040;2023-07-31T09:09:29;6.03;;;2.05;;
57730;SDS011;43570;47.476;19.040;2023-07-31T09:11:56;6.18;;;1.90;;
57730;SDS011;43570;47.476;19.040;2023-07-31T09:14:22;4.97;;;2.10;;
57730;SDS011;43570;47.476;19.040;2023-07-31T09:16:56;4.80;;;2.00;;
57730;SDS011;43570;47.476;19.040;2023-07-31T09:19:27;7.15;;;2.62;;
57730;SDS011;43570;47.476;19.040;2023-07-31T09:21:56;4.95;;;1.95;;
57730;SDS011;43570;47.476;19.040;2023-07-31T09:24:28;4.30;;;1.90;;
57730;SDS011;43570;47.476;19.040;2023-07-31T09:26:55;5.55;;;3.05;;
57730;SDS011;43570;47.476;19.040;2023-07-31T09:29:21;4.93;;;1.80;;
57730;SDS011;43570;47.476;19.040;2023-07-31T09:31:47;5.15;;;2.08;;
57730;SDS011;43570;47.476;19.040;2023-07-31T09:34:13;4.93;;;2.03;;
57730;SDS011;43570;47.476;19.040;2023-07-31T09:39:13;4.78;;;2.08;;
57730;SDS011;43570;47.476;19.040;2023-07-31T09:41:42;5.50;;;2.10;;
57730;SDS011;43570;47.476;19.040;2023-07-31T09:44:09;3.90;;;1.85;;
57730;SDS011;43570;47.476;19.040;2023-07-31T09:46:35;4.18;;;2.15;;
57730;SDS011;43570;47.476;19.040;2023-07-31T09:49:12;3.03;;;1.80;;
57730;SDS011;43570;47.476;19.040;2023-07-31T09:51:38;5.20;;;3.08;;
57730;SDS011;43570;47.476;19.040;2023-07-31T09:54:11;5.90;;;2.50;;
57730;SDS011;43570;47.476;19.040;2023-07-31T09:56:47;6.15;;;2.40;;
57730;SDS011;43570;47.476;19.040;2023-07-31T09:59:17;9.35;;;2.50;;
57730;SDS011;43570;47.476;19.040;2023-07-31T10:01:45;4.03;;;2.03;;
57730;SDS011;43570;47.476;19.040;2023-07-31T10:04:11;5.10;;;2.00;;
57730;SDS011;43570;47.476;19.040;2023-07-31T10:06:38;4.65;;;2.00;;
57730;SDS011;43570;47.476;19.040;2023-07-31T10:09:08;3.83;;;1.73;;
57730;SDS011;43570;47.476;19.040;2023-07-31T10:11:38;7.50;;;2.60;;
57730;SDS011;43570;47.476;19.040;2023-07-31T10:14:26;3.72;;;1.83;;
57730;SDS011;43570;47.476;19.040;2023-07-31T10:16:53;4.28;;;1.92;;
57730;SDS011;43570;47.476;19.040;2023-07-31T10:19:19;5.15;;;2.10;;
57730;SDS011;43570;47.476;19.040;2023-07-31T10:21:45;4.65;;;2.00;;
57730;SDS011;43570;47.476;19.040;2023-07-31T10:24:11;5.57;;;1.95;;
57730;SDS011;43570;47.476;19.040;2023-07-31T10:26:37;5.65;;;3.10;;
57730;SDS011;43570;47.476;19.040;2023-07-31T10:29:04;4.70;;;2.30;;
57730;SDS011;43570;47.476;19.040;2023-07-31T10:31:30;5.72;;;3.10;;
57730;SDS011;43570;47.476;19.040;2023-07-31T10:33:57;3.90;;;2.20;;
57730;SDS011;43570;47.476;19.040;2023-07-31T10:36:24;6.22;;;2.80;;
57730;SDS011;43570;47.476;19.040;2023-07-31T10:38:50;4.70;;;2.00;;
57730;SDS011;43570;47.476;19.040;2023-07-31T10:41:16;5.15;;;1.85;;
57730;SDS011;43570;47.476;19.040;2023-07-31T10:43:41;3.85;;;2.05;;
57730;SDS011;43570;47.476;19.040;2023-07-31T10:46:08;5.47;;;2.75;;
57730;SDS011;43570;47.476;19.040;2023-07-31T10:48:37;4.37;;;2.10;;
57730;SDS011;43570;47.476;19.040;2023-07-31T10:51:08;4.68;;;1.77;;
57730;SDS011;43570;47.476;19.040;2023-07-31T10:53:35;3.17;;;1.60;;
57730;SDS011;43570;47.476;19.040;2023-07-31T10:56:02;3.47;;;1.80;;
57730;SDS011;43570;47.476;19.040;2023-07-31T10:58:29;5.60;;;1.92;;
57730;SDS011;43570;47.476;19.040;2023-07-31T11:00:56;2.97;;;1.60;;
57730;SDS011;43570;47.476;19.040;2023-07-31T11:03:27;5.85;;;2.08;;
57730;SDS011;43570;47.476;19.040;2023-07-31T11:06:09;6.28;;;2.20;;
57730;SDS011;43570;47.476;19.040;2023-07-31T11:08:35;4.22;;;1.92;;
57730;SDS011;43570;47.476;19.040;2023-07-31T11:11:07;5.37;;;1.80;;
57730;SDS011;43570;47.476;19.040;2023-07-31T11:13:44;3.97;;;1.90;;
57730;SDS011;43570;47.476;19.040;2023-07-31T11:16:13;5.53;;;2.10;;
57730;SDS011;43570;47.476;19.040;2023-07-31T11:18:39;2.90;;;1.75;;
57730;SDS011;43570;47.476;19.040;2023-07-31T11:21:06;6.32;;;2.28;;
57730;SDS011;43570;47.476;19.040;2023-07-31T11:23:32;5.62;;;2.10;;
57730;SDS011;43570;47.476;19.040;2023-07-31T11:26:01;5.18;;;2.25;;
57730;SDS011;43570;47.476;19.040;2023-07-31T11:28:31;4.72;;;2.10;;
57730;SDS011;43570;47.476;19.040;2023-07-31T11:30:57;4.12;;;1.70;;
57730;SDS011;43570;47.476;19.040;2023-07-31T11:33:22;6.18;;;1.80;;
57730;SDS011;43570;47.476;19.040;2023-07-31T11:35:48;6.40;;;2.17;;
57730;SDS011;43570;47.476;19.040;2023-07-31T11:38:27;4.70;;;1.75;;
57730;SDS011;43570;47.476;19.040;2023-07-31T11:40:55;4.03;;;1.80;;
57730;SDS011;43570;47.476;19.040;2023-07-31T11:43:22;3.58;;;1.80;;
57730;SDS011;43570;47.476;19.040;2023-07-31T11:45:48;4.55;;;1.92;;
57730;SDS011;43570;47.476;19.040;2023-07-31T11:48:24;3.83;;;1.87;;
57730;SDS011;43570;47.476;19.040;2023-07-31T11:50:51;6.40;;;1.90;;
57730;SDS011;43570;47.476;19.040;2023-07-31T11:53:22;4.25;;;1.62;;
57730;SDS011;43570;47.476;19.040;2023-07-31T11:55:51;4.55;;;2.00;;
57730;SDS011;43570;47.476;19.040;2023-07-31T11:58:17;5.10;;;1.80;;
57730;SDS011;43570;47.476;19.040;2023-07-31T12:00:43;3.25;;;1.50;;
57730;SDS011;43570;47.476;19.040;2023-07-31T12:03:08;5.40;;;1.83;;
57730;SDS011;43570;47.476;19.040;2023-07-31T12:05:34;5.20;;;1.67;;
57730;SDS011;43570;47.476;19.040;2023-07-31T12:07:59;3.90;;;1.58;;
57730;SDS011;43570;47.476;19.040;2023-07-31T12:10:25;4.30;;;1.90;;
57730;SDS011;43570;47.476;19.040;2023-07-31T12:15:45;5.68;;;2.58;;
57730;SDS011;43570;47.476;19.040;2023-07-31T12:18:15;5.22;;;1.98;;
57730;SDS011;43570;47.476;19.040;2023-07-31T12:20:44;6.80;;;1.87;;
57730;SDS011;43570;47.476;19.040;2023-07-31T12:23:17;4.68;;;1.83;;
57730;SDS011;43570;47.476;19.040;2023-07-31T12:25:43;8.23;;;2.40;;
57730;SDS011;43570;47.476;19.040;2023-07-31T12:28:09;6.47;;;2.30;;
57730;SDS011;43570;47.476;19.040;2023-07-31T12:30:39;4.90;;;1.67;;
57730;SDS011;43570;47.476;19.040;2023-07-31T12:33:14;5.03;;;1.90;;
57730;SDS011;43570;47.476;19.040;2023-07-31T12:35:41;4.20;;;1.80;;
57730;SDS011;43570;47.476;19.040;2023-07-31T12:38:07;4.65;;;1.85;;
57730;SDS011;43570;47.476;19.040;2023-07-31T12:40:32;4.10;;;1.90;;
57730;SDS011;43570;47.476;19.040;2023-07-31T12:43:00;4.65;;;1.85;;
57730;SDS011;43570;47.476;19.040;2023-07-31T12:45:27;5.93;;;1.83;;
57730;SDS011;43570;47.476;19.040;2023-07-31T12:47:53;6.25;;;2.08;;
57730;SDS011;43570;47.476;19.040;2023-07-31T12:50:18;3.85;;;1.50;;
57730;SDS011;43570;47.476;19.040;2023-07-31T12:52:44;4.75;;;2.20;;
57730;SDS011;43570;47.476;19.040;2023-07-31T12:55:10;5.03;;;1.77;;
57730;SDS011;43570;47.476;19.040;2023-07-31T12:57:36;4.43;;;1.60;;
57730;SDS011;43570;47.476;19.040;2023-07-31T13:00:02;4.07;;;1.50;;
57730;SDS011;43570;47.476;19.040;2023-07-31T13:02:28;4.00;;;1.80;;
57730;SDS011;43570;47.476;19.040;2023-07-31T13:04:53;4.03;;;1.98;;
57730;SDS011;43570;47.476;19.040;2023-07-31T13:07:19;4.28;;;2.20;;
57730;SDS011;43570;47.476;19.040;2023-07-31T13:09:45;4.20;;;1.80;;
57730;SDS011;43570;47.476;19.040;2023-07-31T13:12:10;5.55;;;2.95;;
57730;SDS011;43570;47.476;19.040;2023-07-31T13:14:35;6.00;;;2.15;;
57730;SDS011;43570;47.476;19.040;2023-07-31T13:17:01;4.18;;;1.87;;
57730;SDS011;43570;47.476;19.040;2023-07-31T13:19:26;4.85;;;2.10;;
57730;SDS011;43570;47.476;19.040;2023-07-31T13:21:52;5.28;;;1.70;;
57730;SDS011;43570;47.476;19.040;2023-07-31T13:24:17;4.53;;;1.85;;
57730;SDS011;43570;47.476;19.040;2023-07-31T13:26:42;4.60;;;2.00;;
57730;SDS011;43570;47.476;19.040;2023-07-31T13:29:08;4.07;;;2.00;;
57730;SDS011;43570;47.476;19.040;2023-07-31T13:31:33;6.45;;;2.20;;
57730;SDS011;43570;47.476;19.040;2023-07-31T13:33:59;4.68;;;1.87;;
57730;SDS011;43570;47.476;19.040;2023-07-31T13:36:24;5.22;;;2.03;;
57730;SDS011;43570;47.476;19.040;2023-07-31T13:38:49;4.35;;;2.20;;
57730;SDS011;43570;47.476;19.040;2023-07-31T13:41:15;4.93;;;1.90;;
57730;SDS011;43570;47.476;19.040;2023-07-31T13:43:40;6.22;;;3.03;;
57730;SDS011;43570;47.476;19.040;2023-07-31T13:46:06;5.35;;;2.05;;
57730;SDS011;43570;47.476;19.040;2023-07-31T13:48:35;5.60;;;2.30;;
57730;SDS011;43570;47.476;19.040;2023-07-31T13:51:01;7.00;;;2.87;;
57730;SDS011;43570;47.476;19.040;2023-07-31T13:53:26;4.37;;;2.30;;
57730;SDS011;43570;47.476;19.040;2023-07-31T13:55:51;6.20;;;2.20;;
57730;SDS011;43570;47.476;19.040;2023-07-31T13:58:17;5.57;;;2.08;;
57730;SDS011;43570;47.476;19.040;2023-07-31T14:00:42;5.97;;;1.90;;
57730;SDS011;43570;47.476;19.040;2023-07-31T14:03:08;6.00;;;2.45;;
57730;SDS011;43570;47.476;19.040;2023-07-31T14:05:33;3.53;;;1.90;;
57730;SDS011;43570;47.476;19.040;2023-07-31T14:07:58;4.75;;;1.90;;
57730;SDS011;43570;47.476;19.040;2023-07-31T14:10:24;4.65;;;2.08;;
57730;SDS011;43570;47.476;19.040;2023-07-31T14:12:49;6.68;;;1.83;;
57730;SDS011;43570;47.476;19.040;2023-07-31T14:15:15;4.65;;;2.12;;
57730;SDS011;43570;47.476;19.040;2023-07-31T14:17:40;8.38;;;2.67;;
57730;SDS011;43570;47.476;19.040;2023-07-31T14:20:06;5.07;;;1.80;;
57730;SDS011;43570;47.476;19.040;2023-07-31T14:22:31;5.95;;;2.28;;
57730;SDS011;43570;47.476;19.040;2023-07-31T14:24:59;3.25;;;1.87;;
57730;SDS011;43570;47.476;19.040;2023-07-31T14:27:24;5.82;;;1.98;;
57730;SDS011;43570;47.476;19.040;2023-07-31T14:29:50;4.05;;;1.75;;
57730;SDS011;43570;47.476;19.040;2023-07-31T14:32:15;3.55;;;1.80;;
57730;SDS011;43570;47.476;19.040;2023-07-31T14:34:41;4.10;;;2.17;;
57730;SDS011;43570;47.476;19.040;2023-07-31T14:37:06;6.00;;;1.90;;
57730;SDS011;43570;47.476;19.040;2023-07-31T14:39:32;5.43;;;2.30;;
57730;SDS011;43570;47.476;19.040;2023-07-31T14:41:58;5.03;;;2.15;;
57730;SDS011;43570;47.476;19.040;2023-07-31T14:44:23;4.57;;;1.80;;